Terminal Aerodrome Forecast
Issued by NWS Raleigh/Durham, NC

Home | Current Version | Previous Version | Text Only | Print | Product List | Glossary On
Versions: 1 2 3 4 5 6 7 8 9 10 11 12 13 14 15 16 17 18 19 20 21 22 23 24 25 26 27 28 29 30 31 32
000
FTUS42 KRAH 312320
TAFFAY
TAF
KFAY 312320Z 0100/0124 10004KT P6SM VCSH BKN050 OVC100
      TEMPO 0100/0104 5SM -SHRA BKN030 OVC050
     FM010800 VRB03KT 5SM -SHRA BR OVC007
     FM011600 VRB05KT 5SM TSRA BR OVC015CB=

USA.gov is the U.S. government's official web portal to all federal, state and local government web resources and services.